Time;durP1;ratioP1;P1;durP2;ratioP2;P2;SDS_P1;SDS_P2;PMS_P1;PMS_P2;Temp;Humidity;BMP_temperature;BMP_pressure;BME280_temperature;BME280_humidity;BME280_pressure;Samples;Min_cycle;Max_cycle;Signal;HPM_P1;HPM_P2
2021/12/05 00:22:57;;;;;;;;;;;;;;;5.78;100.00;97368.81;5052407;28;19925;-80
2021/12/05 00:25:30;;;;;;;;;;;;;;;6.10;100.00;97363.31;5019699;28;19925;-80
2021/12/05 00:36:37;;;;;;;;;;;;;;;5.14;100.00;97370.28;5052959;28;20030;-80
2021/12/05 00:47:27;;;;;;;;;;;;;;;5.47;100.00;97404.34;5035657;28;19929;-81
2021/12/05 00:51:12;;;;;;;;;;;;;;;5.36;100.00;97403.81;5051688;28;19924;-80
2021/12/05 01:01:25;;;;;;;;;;;;;;;5.88;100.00;97417.72;5077072;28;19924;-81
2021/12/05 01:16:00;;;;;;;;;;;;;;;6.51;100.00;97457.75;5055765;28;19947;-81
2021/12/05 01:18:28;;;;;;;;;;;;;;;5.94;100.00;97452.03;5072860;28;20027;-81
2021/12/05 01:20:57;;;;;;;;;;;;;;;6.26;100.00;97446.47;5072860;28;20011;-80
2021/12/05 01:23:41;;;;;;;;;;;;;;;6.02;100.00;97434.00;5072900;28;19939;-81
2021/12/05 01:26:36;;;;;;;;;;;;;;;5.76;100.00;97432.19;5039513;28;19971;-80
2021/12/05 01:29:30;;;;;;;;;;;;;;;6.21;100.00;97458.88;5072337;28;19925;-81
2021/12/05 01:32:22;;;;;;;;;;;;;;;6.23;100.00;97475.06;5088909;28;20024;-81
2021/12/05 01:35:00;;;;;;;;;;;;;;;5.96;100.00;97460.66;5056215;28;19925;-81
2021/12/05 01:40:27;;;;;;;;;;;;;;;5.92;100.00;97468.31;5072922;28;19956;-80
2021/12/05 01:52:16;;;;;;;;;;;;;;;5.59;100.00;97479.28;5074105;28;19925;-81
2021/12/05 01:59:20;;;;;;;;;;;;;;;6.06;100.00;97509.56;5059790;28;20339;-80
2021/12/05 02:40:28;;;;;;;;;;;;;;;5.42;100.00;97585.69;4998434;28;20325;-80
2021/12/05 02:43:06;;;;;;;;;;;;;;;5.68;100.00;97572.88;4982338;28;19925;-81
2021/12/05 02:45:34;;;;;;;;;;;;;;;5.58;100.00;97587.75;5054410;28;20379;-81
2021/12/05 02:48:02;;;;;;;;;;;;;;;5.10;100.00;97604.09;5055442;28;19925;-80
2021/12/05 02:50:32;;;;;;;;;;;;;;;5.59;100.00;97606.72;5055525;28;19931;-80
2021/12/05 02:53:08;;;;;;;;;;;;;;;5.75;100.00;97619.09;5038922;28;19924;-81
2021/12/05 02:55:42;;;;;;;;;;;;;;;5.50;100.00;97612.03;5038676;28;19924;-81
2021/12/05 02:58:48;;;;;;;;;;;;;;;5.45;100.00;97615.28;5055422;28;19932;-81
2021/12/05 03:01:19;;;;;;;;;;;;;;;5.66;100.00;97632.72;5036922;28;19978;-80
2021/12/05 03:03:47;;;;;;;;;;;;;;;5.29;100.00;97626.28;5053950;28;20299;-80
2021/12/05 03:06:20;;;;;;;;;;;;;;;5.58;100.00;97627.34;5038720;28;19932;-81
2021/12/05 03:08:50;;;;;;;;;;;;;;;5.03;100.00;97640.97;5054966;28;19929;-80
2021/12/05 03:11:21;;;;;;;;;;;;;;;5.78;100.00;97637.63;5022765;28;20291;-81
2021/12/05 03:13:48;;;;;;;;;;;;;;;5.68;100.00;97630.31;5049101;28;19924;-80
2021/12/05 03:16:20;;;;;;;;;;;;;;;5.92;100.00;97631.84;5042694;28;19925;-81
2021/12/05 03:18:47;;;;;;;;;;;;;;;5.88;100.00;97634.69;5058390;28;19971;-80
2021/12/05 03:21:16;;;;;;;;;;;;;;;5.78;100.00;97654.25;5075020;28;20372;-80
2021/12/05 03:23:45;;;;;;;;;;;;;;;5.23;100.00;97657.63;5058210;28;19924;-80
2021/12/05 03:26:15;;;;;;;;;;;;;;;5.40;100.00;97665.66;5058286;28;19960;-80
2021/12/05 03:28:44;;;;;;;;;;;;;;;5.65;100.00;97658.88;5058368;28;19932;-80
2021/12/05 03:31:12;;;;;;;;;;;;;;;6.01;100.00;97665.31;5074814;28;19929;-80
2021/12/05 03:33:39;;;;;;;;;;;;;;;5.99;100.00;97668.53;5058144;28;20038;-80
2021/12/05 03:36:07;;;;;;;;;;;;;;;5.72;100.00;97667.84;5074583;28;19931;-80
2021/12/05 03:38:37;;;;;;;;;;;;;;;6.04;100.00;97683.88;5057809;28;19932;-81
2021/12/05 03:41:04;;;;;;;;;;;;;;;5.76;100.00;97676.06;5074531;28;20386;-80
2021/12/05 03:43:32;;;;;;;;;;;;;;;5.57;100.00;97686.69;5075877;28;20013;-80
2021/12/05 03:46:00;;;;;;;;;;;;;;;6.17;100.00;97701.44;5057670;28;19924;-81
2021/12/05 03:48:29;;;;;;;;;;;;;;;5.73;100.00;97699.09;5057543;28;20334;-80
2021/12/05 03:50:58;;;;;;;;;;;;;;;6.18;100.00;97697.47;5057634;28;20424;-80
2021/12/05 03:53:27;;;;;;;;;;;;;;;5.66;100.00;97693.69;5073953;28;19928;-80
2021/12/05 03:55:55;;;;;;;;;;;;;;;6.04;100.00;97703.28;5024671;28;19925;-81
2021/12/05 03:58:23;;;;;;;;;;;;;;;5.91;100.00;97696.81;5074024;28;20009;-80
2021/12/05 04:00:54;;;;;;;;;;;;;;;5.86;100.00;97716.72;5057564;28;20391;-80
2021/12/05 04:03:22;;;;;;;;;;;;;;;5.83;100.00;97710.00;5057700;28;19928;-80
2021/12/05 04:05:49;;;;;;;;;;;;;;;5.86;100.00;97725.03;5040923;28;19974;-81
2021/12/05 04:08:18;;;;;;;;;;;;;;;5.36;100.00;97723.09;5057217;28;19935;-80
2021/12/05 04:10:50;;;;;;;;;;;;;;;5.49;100.00;97734.34;5057375;28;19982;-80
2021/12/05 04:13:18;;;;;;;;;;;;;;;5.14;100.00;97741.25;5081410;28;20337;-80
2021/12/05 04:15:46;;;;;;;;;;;;;;;5.28;100.00;97740.25;5077295;28;20012;-80
2021/12/05 04:18:17;;;;;;;;;;;;;;;5.75;100.00;97749.34;5077733;28;20026;-80
2021/12/05 04:20:45;;;;;;;;;;;;;;;5.48;100.00;97739.09;5060717;28;19925;-80
2021/12/05 04:23:13;;;;;;;;;;;;;;;5.67;100.00;97758.97;5043898;28;19925;-80
2021/12/05 04:25:47;;;;;;;;;;;;;;;5.53;100.00;97790.47;5060865;28;19924;-80
2021/12/05 04:28:25;;;;;;;;;;;;;;;5.52;100.00;97756.47;5078570;28;19935;-80
2021/12/05 04:30:52;;;;;;;;;;;;;;;5.66;100.00;97760.19;5060465;28;20332;-80
2021/12/05 04:33:22;;;;;;;;;;;;;;;5.21;100.00;97770.84;5076977;28;19931;-80
2021/12/05 04:35:49;;;;;;;;;;;;;;;5.14;100.00;97801.38;5076666;28;19931;-81
2021/12/05 04:38:18;;;;;;;;;;;;;;;5.78;100.00;97787.28;5076991;28;19935;-80
2021/12/05 04:40:47;;;;;;;;;;;;;;;5.71;100.00;97777.09;5076933;28;19931;-81
2021/12/05 04:43:15;;;;;;;;;;;;;;;5.52;100.00;97795.25;5060718;28;19931;-80
2021/12/05 04:45:43;;;;;;;;;;;;;;;5.37;100.00;97793.13;5076593;28;19924;-80
2021/12/05 04:48:10;;;;;;;;;;;;;;;5.84;100.00;97802.28;5060154;28;19928;-80
2021/12/05 04:50:38;;;;;;;;;;;;;;;5.46;100.00;97799.72;5059894;28;19924;-80
2021/12/05 04:53:08;;;;;;;;;;;;;;;5.28;100.00;97804.75;5076835;28;19964;-80
2021/12/05 04:55:36;;;;;;;;;;;;;;;5.55;100.00;97819.34;5060151;28;19931;-80
2021/12/05 04:58:11;;;;;;;;;;;;;;;6.01;100.00;97815.03;5061139;28;19977;-80
2021/12/05 05:00:42;;;;;;;;;;;;;;;5.67;100.00;97812.41;5076687;28;19924;-81
2021/12/05 05:03:10;;;;;;;;;;;;;;;5.43;100.00;97811.63;5094563;28;19924;-80
2021/12/05 05:05:41;;;;;;;;;;;;;;;5.36;100.00;97814.47;5076333;28;20010;-80
2021/12/05 05:08:08;;;;;;;;;;;;;;;5.10;100.00;97818.03;5094008;28;19947;-80
2021/12/05 05:10:35;;;;;;;;;;;;;;;5.43;100.00;97847.63;5076632;28;19924;-80
2021/12/05 05:13:02;;;;;;;;;;;;;;;5.22;100.00;97839.63;5076172;28;19947;-80
2021/12/05 05:15:31;;;;;;;;;;;;;;;5.63;100.00;97845.72;5076440;28;20007;-80
2021/12/05 05:17:59;;;;;;;;;;;;;;;6.10;100.00;97845.78;5094449;28;19931;-80
2021/12/05 05:20:35;;;;;;;;;;;;;;;5.50;100.00;97869.69;5076113;28;19950;-80
2021/12/05 05:28:50;;;;;;;;;;;;;;;5.37;100.00;97871.47;5076047;28;19924;-80
2021/12/05 05:45:12;;;;;;;;;;;;;;;5.72;100.00;97910.91;5092983;28;19930;-80
2021/12/05 05:50:17;;;;;;;;;;;;;;;6.21;100.00;97907.41;5093523;28;19931;-81
2021/12/05 05:52:44;;;;;;;;;;;;;;;5.92;100.00;97914.59;5093876;28;19924;-80
2021/12/05 05:55:12;;;;;;;;;;;;;;;5.81;100.00;97911.97;5059330;28;19924;-80
2021/12/05 06:00:33;;;;;;;;;;;;;;;6.47;100.00;97915.63;5094407;28;19924;-81
2021/12/05 06:03:21;;;;;;;;;;;;;;;6.21;100.00;97932.38;5075888;28;19925;-80
2021/12/05 06:05:58;;;;;;;;;;;;;;;5.92;100.00;97918.19;5075929;28;19924;-80
2021/12/05 06:08:26;;;;;;;;;;;;;;;6.50;100.00;97927.88;5058706;28;20275;-80
2021/12/05 06:10:55;;;;;;;;;;;;;;;5.69;100.00;97931.16;5093825;28;19924;-80
2021/12/05 06:13:23;;;;;;;;;;;;;;;6.50;100.00;97930.66;5093592;28;19924;-80
2021/12/05 06:15:50;;;;;;;;;;;;;;;5.93;100.00;97952.22;5093813;28;20433;-80
2021/12/05 06:18:18;;;;;;;;;;;;;;;5.59;100.00;97933.66;5075811;28;19935;-80
2021/12/05 06:20:45;;;;;;;;;;;;;;;5.83;100.00;97928.22;5093885;28;19924;-80
2021/12/05 06:23:13;;;;;;;;;;;;;;;6.49;100.00;97954.06;5076078;28;19931;-80
2021/12/05 06:25:41;;;;;;;;;;;;;;;6.44;100.00;97937.88;5075973;28;20266;-80
2021/12/05 06:28:11;;;;;;;;;;;;;;;5.96;100.00;97941.06;5075778;28;20434;-81
2021/12/05 06:46:32;;;;;;;;;;;;;;;6.15;100.00;97975.66;5096918;28;19935;-80
2021/12/05 06:49:00;;;;;;;;;;;;;;;6.03;100.00;97970.69;5097146;28;20011;-80
2021/12/05 06:51:28;;;;;;;;;;;;;;;5.88;100.00;97980.41;5097344;28;19928;-80
2021/12/05 06:53:56;;;;;;;;;;;;;;;5.71;100.00;97978.66;5079061;28;19977;-80
2021/12/05 06:56:23;;;;;;;;;;;;;;;6.41;100.00;97995.00;5096732;28;19931;-80
2021/12/05 06:58:50;;;;;;;;;;;;;;;6.34;100.00;97991.56;5045668;28;19924;-80
2021/12/05 07:01:18;;;;;;;;;;;;;;;6.22;100.00;97997.72;5078346;28;19928;-81
2021/12/05 07:03:47;;;;;;;;;;;;;;;6.26;100.00;97998.44;5078863;28;20015;-80
2021/12/05 07:06:22;;;;;;;;;;;;;;;6.71;100.00;98019.13;5096908;28;19924;-80
2021/12/05 07:08:50;;;;;;;;;;;;;;;6.03;100.00;98012.28;5063332;28;20267;-80
2021/12/05 07:11:29;;;;;;;;;;;;;;;6.24;100.00;98017.50;5102138;28;19934;-80
2021/12/05 07:26:47;;;;;;;;;;;;;;;6.61;100.00;98053.38;5061574;28;19928;-81
2021/12/05 07:40:23;;;;;;;;;;;;;;;6.24;100.00;98050.78;5096353;28;20041;-80
2021/12/05 07:42:51;;;;;;;;;;;;;;;6.46;100.00;98069.47;5095771;28;19967;-80
2021/12/05 07:45:24;;;;;;;;;;;;;;;6.53;100.00;98063.00;5060688;28;19928;-81
2021/12/05 07:47:53;;;;;;;;;;;;;;;6.46;100.00;98063.13;5077584;28;20359;-81
2021/12/05 07:50:29;;;;;;;;;;;;;;;6.40;100.00;98068.38;5044018;28;19924;-81
2021/12/05 07:53:04;;;;;;;;;;;;;;;6.03;100.00;98089.91;5096164;28;19924;-80
2021/12/05 07:55:38;;;;;;;;;;;;;;;6.78;100.00;98094.72;5077924;28;20340;-80
2021/12/05 08:00:58;;;;;;;;;;;;;;;6.76;100.00;98088.00;5076332;28;19924;-80
2021/12/05 08:14:40;;;;;;;;;;;;;;;6.99;100.00;98107.47;5094990;28;20022;-81
2021/12/05 08:17:14;;;;;;;;;;;;;;;7.07;100.00;98114.47;5077328;28;19947;-80
2021/12/05 08:19:41;;;;;;;;;;;;;;;6.75;100.00;98130.88;5077806;28;19924;-80
2021/12/05 08:22:08;;;;;;;;;;;;;;;6.69;100.00;98138.09;5077040;28;19928;-80
2021/12/05 08:24:39;;;;;;;;;;;;;;;6.81;100.00;98123.63;5077089;28;19924;-80
2021/12/05 08:27:08;;;;;;;;;;;;;;;6.90;100.00;98129.44;5077258;28;19970;-80
2021/12/05 08:29:44;;;;;;;;;;;;;;;7.10;100.00;98135.84;5059622;28;20065;-80
2021/12/05 08:35:00;;;;;;;;;;;;;;;6.54;100.00;98170.03;5076921;28;20383;-81
2021/12/05 08:43:28;;;;;;;;;;;;;;;7.26;100.00;98161.75;5113947;28;20382;-81
2021/12/05 09:22:00;;;;;;;;;;;;;;;7.24;100.00;98238.38;5075744;28;19924;-82
2021/12/05 10:10:29;;;;;;;;;;;;;;;6.73;100.00;98324.81;5009541;28;19929;-82
2021/12/05 10:13:06;;;;;;;;;;;;;;;7.15;100.00;98321.47;5014375;28;19930;-83
2021/12/05 10:15:52;;;;;;;;;;;;;;;7.38;100.00;98324.31;4982780;28;20075;-82
2021/12/05 10:26:39;;;;;;;;;;;;;;;7.43;100.00;98346.09;5018484;28;19975;-80
2021/12/05 10:37:54;;;;;;;;;;;;;;;7.19;100.00;98355.56;5035974;28;20001;-80
2021/12/05 10:40:33;;;;;;;;;;;;;;;7.43;100.00;98359.19;5042713;28;19924;-80
2021/12/05 10:43:00;;;;;;;;;;;;;;;7.30;100.00;98350.63;5084147;28;19928;-81
2021/12/05 10:45:27;;;;;;;;;;;;;;;7.68;100.00;98354.81;5078887;28;19931;-81
2021/12/05 10:47:57;;;;;;;;;;;;;;;7.22;100.00;98360.28;5097019;28;20256;-80
2021/12/05 10:50:30;;;;;;;;;;;;;;;7.45;100.00;98362.34;5079440;28;20018;-80
2021/12/05 10:53:16;;;;;;;;;;;;;;;7.64;100.00;98359.66;5078747;28;19973;-80
2021/12/05 10:55:43;;;;;;;;;;;;;;;7.48;100.00;98367.84;5078923;28;19977;-80
2021/12/05 10:58:11;;;;;;;;;;;;;;;7.61;100.00;98366.06;5079402;28;19960;-81
2021/12/05 11:00:38;;;;;;;;;;;;;;;7.95;100.00;98375.03;5079174;28;19924;-80
2021/12/05 11:03:16;;;;;;;;;;;;;;;7.95;100.00;98363.91;5062068;28;20030;-79
2021/12/05 11:05:44;;;;;;;;;;;;;;;8.11;100.00;98374.38;5078850;28;20020;-80
2021/12/05 11:08:34;;;;;;;;;;;;;;;7.75;100.00;98393.66;5061530;28;19924;-80
2021/12/05 11:11:16;;;;;;;;;;;;;;;7.59;100.00;98379.59;5096520;28;19924;-80
2021/12/05 11:13:44;;;;;;;;;;;;;;;7.45;100.00;98393.72;5074704;28;19924;-80
2021/12/05 11:16:30;;;;;;;;;;;;;;;7.57;100.00;98393.13;5080420;28;20379;-81
2021/12/05 11:18:57;;;;;;;;;;;;;;;8.00;100.00;98399.59;5078258;28;20371;-80
2021/12/05 11:21:24;;;;;;;;;;;;;;;7.46;100.00;98400.03;5066446;28;20334;-81
2021/12/05 11:24:04;;;;;;;;;;;;;;;7.65;100.00;98416.84;5058379;28;19924;-81
2021/12/05 11:26:31;;;;;;;;;;;;;;;8.10;100.00;98426.47;5028336;28;19934;-80
2021/12/05 11:28:59;;;;;;;;;;;;;;;7.69;100.00;98425.13;5078032;28;20311;-81
2021/12/05 11:31:27;;;;;;;;;;;;;;;7.93;100.00;98421.19;5044245;28;19928;-81
2021/12/05 11:33:55;;;;;;;;;;;;;;;7.69;100.00;98425.94;5077950;28;19924;-82
2021/12/05 11:36:24;;;;;;;;;;;;;;;7.77;100.00;98412.72;5057957;28;19924;-84
2021/12/05 11:38:51;;;;;;;;;;;;;;;7.43;100.00;98426.69;5077371;28;19963;-82
2021/12/05 11:41:20;;;;;;;;;;;;;;;7.40;100.00;98427.53;5077003;28;19938;-81
2021/12/05 11:43:49;;;;;;;;;;;;;;;7.76;100.00;98436.94;5079881;28;20402;-82
2021/12/05 11:46:17;;;;;;;;;;;;;;;7.87;100.00;98437.56;5095240;28;19924;-81
2021/12/05 11:48:50;;;;;;;;;;;;;;;7.81;100.00;98433.69;5060329;28;19924;-82
2021/12/05 11:51:29;;;;;;;;;;;;;;;7.98;100.00;98429.81;5076858;28;20517;-80
2021/12/05 11:54:09;;;;;;;;;;;;;;;7.69;100.00;98430.69;5061417;28;19924;-80
2021/12/05 11:56:35;;;;;;;;;;;;;;;7.62;100.00;98434.34;5077989;28;19947;-81
2021/12/05 11:59:11;;;;;;;;;;;;;;;7.45;100.00;98452.09;5044166;28;19927;-81
2021/12/05 12:01:47;;;;;;;;;;;;;;;7.69;100.00;98439.84;5077750;28;19974;-81
2021/12/05 12:04:16;;;;;;;;;;;;;;;8.00;100.00;98448.88;5077036;28;19924;-81
2021/12/05 12:06:43;;;;;;;;;;;;;;;8.01;100.00;98439.34;5059633;28;19924;-81
2021/12/05 12:09:13;;;;;;;;;;;;;;;7.89;100.00;98439.94;5076276;28;19924;-81
2021/12/05 12:11:40;;;;;;;;;;;;;;;8.07;100.00;98466.28;5094325;28;20383;-80
2021/12/05 12:14:07;;;;;;;;;;;;;;;8.04;100.00;98449.63;5059528;28;19924;-81
2021/12/05 12:16:34;;;;;;;;;;;;;;;8.45;100.00;98445.38;5076261;28;20393;-81
2021/12/05 12:19:03;;;;;;;;;;;;;;;8.09;100.00;98449.94;5076205;28;19931;-81
2021/12/05 12:21:41;;;;;;;;;;;;;;;7.99;100.00;98458.44;5042844;28;20383;-81
2021/12/05 12:24:10;;;;;;;;;;;;;;;7.89;100.00;98457.38;5059664;28;19931;-81
2021/12/05 12:26:37;;;;;;;;;;;;;;;7.98;100.00;98466.00;5075721;28;20062;-81
2021/12/05 12:29:04;;;;;;;;;;;;;;;8.10;100.00;98462.66;5075741;28;19924;-81
2021/12/05 12:31:35;;;;;;;;;;;;;;;8.35;100.00;98488.13;5075770;28;19978;-81
2021/12/05 12:34:08;;;;;;;;;;;;;;;8.42;100.00;98481.66;5075794;28;19930;-81
2021/12/05 12:36:42;;;;;;;;;;;;;;;8.01;100.00;98473.50;5059214;28;19924;-81
2021/12/05 12:39:15;;;;;;;;;;;;;;;8.05;100.00;98485.38;5058738;28;19931;-82
2021/12/05 12:41:59;;;;;;;;;;;;;;;7.95;100.00;98488.31;5074485;28;19942;-82
2021/12/05 12:44:27;;;;;;;;;;;;;;;8.07;100.00;98488.53;5094480;28;19967;-84
2021/12/05 12:46:59;;;;;;;;;;;;;;;7.92;100.00;98498.28;5044595;28;20072;-83
2021/12/05 12:49:28;;;;;;;;;;;;;;;8.19;100.00;98496.31;5076198;28;19950;-83
2021/12/05 12:51:59;;;;;;;;;;;;;;;8.06;100.00;98498.06;5076889;28;20015;-84
2021/12/05 12:54:39;;;;;;;;;;;;;;;8.44;100.00;98502.28;5076779;28;19928;-83
2021/12/05 12:57:15;;;;;;;;;;;;;;;8.32;100.00;98499.28;5076624;28;19924;-84
2021/12/05 12:59:55;;;;;;;;;;;;;;;8.38;100.00;98509.53;5094159;28;20504;-83
2021/12/05 13:02:31;;;;;;;;;;;;;;;8.37;100.00;98513.53;5075266;28;19930;-84
2021/12/05 13:05:24;;;;;;;;;;;;;;;8.60;100.00;98527.47;5076248;28;19924;-82
2021/12/05 13:10:52;;;;;;;;;;;;;;;7.91;100.00;98530.09;5075626;28;19924;-84
2021/12/05 13:13:20;;;;;;;;;;;;;;;8.33;100.00;98539.84;5091017;28;20018;-84
2021/12/05 13:15:52;;;;;;;;;;;;;;;8.63;100.00;98542.56;5075869;28;19930;-83
2021/12/05 13:18:26;;;;;;;;;;;;;;;8.71;100.00;98547.56;5080184;28;21631;-84
2021/12/05 13:20:56;;;;;;;;;;;;;;;8.70;100.00;98551.56;5070170;28;19931;-84
2021/12/05 13:23:30;;;;;;;;;;;;;;;8.72;100.00;98551.91;5077714;28;19949;-84
2021/12/05 13:26:13;;;;;;;;;;;;;;;8.67;100.00;98552.41;5059279;28;20019;-84
2021/12/05 13:28:52;;;;;;;;;;;;;;;8.88;100.00;98549.28;5076110;28;20359;-81
2021/12/05 13:31:28;;;;;;;;;;;;;;;8.73;100.00;98561.88;5059746;28;19931;-81
2021/12/05 13:34:14;;;;;;;;;;;;;;;8.31;100.00;98570.91;5094222;28;20286;-81
2021/12/05 13:36:42;;;;;;;;;;;;;;;8.43;100.00;98578.66;5073898;28;19928;-82
2021/12/05 13:39:28;;;;;;;;;;;;;;;8.76;100.00;98576.94;5059473;28;19924;-84
2021/12/05 13:42:05;;;;;;;;;;;;;;;8.22;100.00;98580.94;5093807;28;19924;-81
2021/12/05 13:44:51;;;;;;;;;;;;;;;8.19;100.00;98590.13;5059311;28;19987;-81
2021/12/05 13:47:19;;;;;;;;;;;;;;;7.91;100.00;98601.59;5094956;28;19924;-83
2021/12/05 13:49:47;;;;;;;;;;;;;;;8.30;100.00;98604.72;5063100;28;19931;-83
2021/12/05 13:52:36;;;;;;;;;;;;;;;8.30;100.00;98605.47;5063338;28;19924;-82
2021/12/05 13:55:22;;;;;;;;;;;;;;;8.45;100.00;98595.72;5063746;28;19924;-82
2021/12/05 13:58:07;;;;;;;;;;;;;;;8.67;100.00;98588.63;5046915;28;19924;-82
2021/12/05 14:00:39;;;;;;;;;;;;;;;7.87;100.00;98607.25;5062900;28;19924;-82
2021/12/05 14:03:06;;;;;;;;;;;;;;;8.24;100.00;98614.75;5064348;28;20351;-82
2021/12/05 14:05:33;;;;;;;;;;;;;;;8.36;100.00;98617.72;5078739;28;20060;-84
2021/12/05 14:08:00;;;;;;;;;;;;;;;8.38;100.00;98622.88;5081888;28;19939;-83
2021/12/05 14:10:41;;;;;;;;;;;;;;;8.49;100.00;98624.31;5075986;28;19924;-84
2021/12/05 14:13:08;;;;;;;;;;;;;;;8.31;100.00;98620.19;5051580;28;20011;-82
2021/12/05 14:15:35;;;;;;;;;;;;;;;8.31;100.00;98632.13;5100203;28;19928;-81
2021/12/05 14:18:02;;;;;;;;;;;;;;;8.24;100.00;98626.63;5081200;28;19935;-82
2021/12/05 14:20:29;;;;;;;;;;;;;;;7.79;100.00;98622.44;5079910;28;20329;-84
2021/12/05 14:22:57;;;;;;;;;;;;;;;8.20;100.00;98628.66;5081808;28;19924;-82
2021/12/05 14:25:26;;;;;;;;;;;;;;;8.04;100.00;98622.91;5079315;28;19924;-81
2021/12/05 14:27:55;;;;;;;;;;;;;;;8.11;100.00;98628.38;5079741;28;19931;-83
2021/12/05 14:30:24;;;;;;;;;;;;;;;7.97;100.00;98623.00;5062005;28;19961;-82
2021/12/05 14:32:58;;;;;;;;;;;;;;;7.75;100.00;98627.25;5079509;28;19963;-82
2021/12/05 14:35:28;;;;;;;;;;;;;;;7.79;100.00;98625.22;5062667;28;19931;-82
2021/12/05 14:37:56;;;;;;;;;;;;;;;7.85;100.00;98637.44;5062607;28;19970;-81
2021/12/05 14:40:30;;;;;;;;;;;;;;;7.73;100.00;98639.97;5096390;28;19924;-81
2021/12/05 14:42:59;;;;;;;;;;;;;;;8.01;100.00;98645.22;5078207;28;20337;-81
2021/12/05 14:45:27;;;;;;;;;;;;;;;7.79;100.00;98639.13;5060513;28;19938;-84
2021/12/05 14:47:56;;;;;;;;;;;;;;;7.74;100.00;98647.91;5078832;28;20025;-81
2021/12/05 14:50:27;;;;;;;;;;;;;;;7.98;100.00;98638.47;5061421;28;19924;-83
2021/12/05 14:52:56;;;;;;;;;;;;;;;8.04;100.00;98645.16;5062052;28;19924;-83
2021/12/05 14:55:24;;;;;;;;;;;;;;;7.95;100.00;98644.88;5096438;28;20425;-81
2021/12/05 14:57:54;;;;;;;;;;;;;;;7.74;100.00;98636.78;5077795;28;19924;-81
2021/12/05 15:00:24;;;;;;;;;;;;;;;8.13;100.00;98642.69;5096398;28;19935;-81
2021/12/05 15:03:03;;;;;;;;;;;;;;;8.10;100.00;98639.94;5078402;28;19924;-83
2021/12/05 15:05:31;;;;;;;;;;;;;;;8.51;100.00;98629.47;5096880;28;20379;-81
2021/12/05 15:08:02;;;;;;;;;;;;;;;8.62;100.00;98638.41;5077921;28;20019;-82
2021/12/05 15:10:29;;;;;;;;;;;;;;;8.14;100.00;98637.88;5078878;28;20022;-81
2021/12/05 15:12:57;;;;;;;;;;;;;;;8.40;100.00;98642.72;5096475;28;20056;-82
2021/12/05 15:15:25;;;;;;;;;;;;;;;8.35;100.00;98637.63;5095770;28;19924;-83
2021/12/05 15:17:53;;;;;;;;;;;;;;;8.33;100.00;98656.75;5095524;28;19928;-82
2021/12/05 15:20:23;;;;;;;;;;;;;;;8.48;100.00;98666.50;5060392;28;19925;-81
2021/12/05 15:22:52;;;;;;;;;;;;;;;8.38;100.00;98673.78;5116658;28;20294;-82
2021/12/05 15:27:19;;;;;;;;;;;;;;;8.14;100.00;98688.78;5089610;28;19997;-81
2021/12/05 15:29:49;;;;;;;;;;;;;;;8.26;100.00;98688.25;5090122;28;19925;-81
2021/12/05 15:32:22;;;;;;;;;;;;;;;8.33;100.00;98690.16;5087892;28;19947;-81
2021/12/05 15:34:50;;;;;;;;;;;;;;;8.27;100.00;98697.41;5071696;28;19974;-80
2021/12/05 15:37:21;;;;;;;;;;;;;;;7.96;100.00;98693.75;5071454;28;20007;-80
2021/12/05 15:39:51;;;;;;;;;;;;;;;7.86;100.00;98699.44;5071369;28;19951;-81
2021/12/05 15:42:20;;;;;;;;;;;;;;;7.85;100.00;98704.22;5070084;28;20045;-81
2021/12/05 15:44:48;;;;;;;;;;;;;;;7.74;100.00;98697.19;5052864;28;20280;-81
2021/12/05 15:47:18;;;;;;;;;;;;;;;7.89;100.00;98709.75;5086492;28;20291;-80
2021/12/05 15:49:49;;;;;;;;;;;;;;;8.09;100.00;98721.84;5069702;28;19932;-82
2021/12/05 15:52:19;;;;;;;;;;;;;;;8.36;100.00;98723.50;5069769;28;20326;-82
2021/12/05 15:54:47;;;;;;;;;;;;;;;7.94;100.00;98735.09;5070659;28;20342;-84
2021/12/05 15:57:25;;;;;;;;;;;;;;;7.67;100.00;98736.97;5046119;28;20394;-81
2021/12/05 15:59:52;;;;;;;;;;;;;;;8.04;100.00;98745.31;5089097;28;19925;-81
2021/12/05 16:02:19;;;;;;;;;;;;;;;8.15;100.00;98737.66;5122824;28;19947;-80
2021/12/05 16:04:47;;;;;;;;;;;;;;;8.23;100.00;98746.75;5085686;28;20386;-80
2021/12/05 16:07:16;;;;;;;;;;;;;;;8.34;100.00;98759.34;5090712;28;19939;-80
2021/12/05 16:09:44;;;;;;;;;;;;;;;8.40;100.00;98752.09;5090115;28;19924;-80
2021/12/05 16:12:14;;;;;;;;;;;;;;;8.46;100.00;98749.66;5089490;28;19924;-80
2021/12/05 16:14:43;;;;;;;;;;;;;;;8.34;100.00;98764.09;5089920;28;20547;-80
2021/12/05 16:17:14;;;;;;;;;;;;;;;8.13;100.00;98764.31;5089561;28;19947;-80
2021/12/05 16:20:01;;;;;;;;;;;;;;;8.29;100.00;98773.72;5088519;28;19924;-80
2021/12/05 16:22:29;;;;;;;;;;;;;;;8.38;100.00;98774.00;5089619;28;19931;-80
2021/12/05 16:24:56;;;;;;;;;;;;;;;8.35;100.00;98769.25;5103751;28;20371;-80
2021/12/05 16:27:23;;;;;;;;;;;;;;;8.36;100.00;98772.84;5104229;28;20294;-80
2021/12/05 16:29:50;;;;;;;;;;;;;;;8.65;100.00;98780.41;5090503;28;20367;-80
2021/12/05 16:32:19;;;;;;;;;;;;;;;8.58;100.00;98779.72;5120669;28;19998;-80
2021/12/05 16:34:49;;;;;;;;;;;;;;;8.30;100.00;98786.41;5072269;28;20292;-81
2021/12/05 16:37:16;;;;;;;;;;;;;;;8.40;100.00;98791.09;5081217;28;20019;-80
2021/12/05 16:39:45;;;;;;;;;;;;;;;8.52;100.00;98786.97;5076827;28;19924;-80
2021/12/05 16:42:14;;;;;;;;;;;;;;;8.19;100.00;98796.88;5075434;28;19924;-80
2021/12/05 16:44:48;;;;;;;;;;;;;;;7.83;100.00;98798.41;5092614;28;20378;-80
2021/12/05 16:47:17;;;;;;;;;;;;;;;7.81;100.00;98814.72;5075387;28;19924;-80
2021/12/05 16:49:48;;;;;;;;;;;;;;;8.13;100.00;98819.97;5076315;28;20415;-81
2021/12/05 16:52:20;;;;;;;;;;;;;;;8.00;100.00;98827.25;5068650;28;19931;-80
2021/12/05 16:54:53;;;;;;;;;;;;;;;8.54;100.00;98829.09;5063709;28;19982;-80
2021/12/05 16:57:23;;;;;;;;;;;;;;;9.00;100.00;98830.09;5068188;28;19932;-80
2021/12/05 16:59:52;;;;;;;;;;;;;;;9.16;100.00;98827.47;5063541;28;20023;-80
2021/12/05 17:02:30;;;;;;;;;;;;;;;8.77;100.00;98826.41;5072600;28;20311;-81
2021/12/05 17:05:06;;;;;;;;;;;;;;;8.93;100.00;98835.78;5076663;28;19925;-80
2021/12/05 17:07:37;;;;;;;;;;;;;;;8.79;100.00;98829.59;5058911;28;19931;-80
2021/12/05 17:10:05;;;;;;;;;;;;;;;8.19;100.00;98838.59;5073576;28;20325;-80
2021/12/05 17:12:34;;;;;;;;;;;;;;;8.00;100.00;98849.50;5075405;28;19947;-80
2021/12/05 17:15:12;;;;;;;;;;;;;;;8.00;100.00;98855.06;5074465;28;19924;-81
2021/12/05 17:17:40;;;;;;;;;;;;;;;8.35;100.00;98847.22;5075935;28;19928;-81
2021/12/05 17:20:27;;;;;;;;;;;;;;;8.19;100.00;98852.53;5074868;28;19932;-82
2021/12/05 17:22:56;;;;;;;;;;;;;;;8.14;100.00;98866.06;5074616;28;19924;-81
2021/12/05 17:25:26;;;;;;;;;;;;;;;8.16;100.00;98869.25;5075354;28;19929;-80
2021/12/05 17:27:54;;;;;;;;;;;;;;;7.47;100.00;98874.19;5074726;28;19929;-79
2021/12/05 17:30:21;;;;;;;;;;;;;;;7.44;100.00;98888.91;5076076;28;19924;-79
2021/12/05 17:32:48;;;;;;;;;;;;;;;7.64;100.00;98876.84;5075127;28;20406;-79
2021/12/05 17:35:15;;;;;;;;;;;;;;;8.07;100.00;98883.66;5075922;28;19931;-79
2021/12/05 17:37:44;;;;;;;;;;;;;;;7.78;100.00;98876.75;5075657;28;20015;-79
2021/12/05 17:40:17;;;;;;;;;;;;;;;7.86;100.00;98894.16;5090338;28;19931;-79
2021/12/05 17:42:44;;;;;;;;;;;;;;;8.07;100.00;98882.84;5074516;28;19978;-80
2021/12/05 17:45:11;;;;;;;;;;;;;;;8.28;100.00;98883.47;5073454;28;20363;-79
2021/12/05 17:47:39;;;;;;;;;;;;;;;7.67;100.00;98881.56;5056811;28;20011;-79
2021/12/05 17:50:10;;;;;;;;;;;;;;;7.60;100.00;98878.84;5055588;28;19924;-78
2021/12/05 17:52:48;;;;;;;;;;;;;;;7.28;100.00;98881.81;5059158;28;19925;-78
2021/12/05 17:55:25;;;;;;;;;;;;;;;7.78;100.00;98896.19;5035357;28;20032;-79
2021/12/05 17:58:17;;;;;;;;;;;;;;;7.97;100.00;98886.50;5062115;28;19932;-79
2021/12/05 18:00:56;;;;;;;;;;;;;;;8.03;100.00;98871.75;5074132;28;20017;-79
2021/12/05 18:03:23;;;;;;;;;;;;;;;8.02;100.00;98875.75;5090565;28;19950;-78
2021/12/05 18:05:51;;;;;;;;;;;;;;;8.00;100.00;98878.13;5072924;28;19925;-79
2021/12/05 18:08:24;;;;;;;;;;;;;;;7.78;100.00;98876.75;5106594;28;19931;-79
2021/12/05 18:10:57;;;;;;;;;;;;;;;7.70;100.00;98888.31;5074927;28;19925;-78
2021/12/05 18:13:25;;;;;;;;;;;;;;;7.66;100.00;98896.69;5075139;28;19925;-78
2021/12/05 18:16:03;;;;;;;;;;;;;;;7.77;100.00;98910.53;5074841;28;19982;-79